Lockport, Kentucky
Current Conditions -  °F | °C
As of 3:09 PM on Thursday 29 Jan 2015 (Local Time) from KFFT Reporting Station
Overcast Overcast  
Wind Chill: 37°   Ceiling: 3000
Heat Index: 45°   Visibility: 10mi
Dew Point: 34°   Wind: 22mph
Humidity: 65%   Direction: 270°W
Pressure: 29.95"   Gusts: 32mph
Location:  38.44°N, 84.97°W
Report Text: KFFT 292009Z AUTO 27019G28KT 10SM OVC030 07/01 A2995 RMK AO2 PK WND 27028/2008 T00720011
Loading
Personal Weather Stations






























Interactive Weather Map New forecast layout! Learn more

10-Day Weather Forecast

Advertisements
Track Severe Weather on mobile